sensor_id;sensor_type;location;lat;lon;timestamp;P1;durP1;ratioP1;P2;durP2;ratioP2
29430;SDS011;16404;49.902;10.074;2022-08-01T05:32:40;6.22;;;2.40;;
29430;SDS011;16404;49.902;10.074;2022-08-01T05:35:25;4.93;;;1.90;;
29430;SDS011;16404;49.902;10.074;2022-08-01T05:38:10;2.45;;;1.95;;
29430;SDS011;16404;49.902;10.074;2022-08-01T05:40:55;3.88;;;1.90;;
29430;SDS011;16404;49.902;10.074;2022-08-01T05:43:39;7.85;;;2.30;;
29430;SDS011;16404;49.902;10.074;2022-08-01T05:46:24;6.05;;;1.90;;
29430;SDS011;16404;49.902;10.074;2022-08-01T05:49:08;6.82;;;2.00;;
29430;SDS011;16404;49.902;10.074;2022-08-01T05:51:53;4.68;;;1.73;;
29430;SDS011;16404;49.902;10.074;2022-08-01T05:54:38;4.72;;;2.03;;
29430;SDS011;16404;49.902;10.074;2022-08-01T05:57:22;2.80;;;1.83;;
29430;SDS011;16404;49.902;10.074;2022-08-01T06:00:07;3.63;;;1.92;;
29430;SDS011;16404;49.902;10.074;2022-08-01T06:02:56;5.65;;;1.80;;
29430;SDS011;16404;49.902;10.074;2022-08-01T06:05:40;3.33;;;1.85;;
29430;SDS011;16404;49.902;10.074;2022-08-01T06:08:25;1.85;;;1.38;;
29430;SDS011;16404;49.902;10.074;2022-08-01T06:11:10;3.53;;;1.48;;
29430;SDS011;16404;49.902;10.074;2022-08-01T06:13:54;4.78;;;1.75;;
29430;SDS011;16404;49.902;10.074;2022-08-01T06:16:39;2.42;;;1.30;;
29430;SDS011;16404;49.902;10.074;2022-08-01T06:19:24;3.42;;;1.50;;
29430;SDS011;16404;49.902;10.074;2022-08-01T06:22:10;2.95;;;1.50;;
29430;SDS011;16404;49.902;10.074;2022-08-01T06:24:54;3.45;;;1.35;;
29430;SDS011;16404;49.902;10.074;2022-08-01T06:27:39;4.30;;;1.73;;
29430;SDS011;16404;49.902;10.074;2022-08-01T06:30:23;3.10;;;1.60;;
29430;SDS011;16404;49.902;10.074;2022-08-01T06:33:08;7.05;;;1.83;;
29430;SDS011;16404;49.902;10.074;2022-08-01T06:35:53;5.45;;;1.65;;
29430;SDS011;16404;49.902;10.074;2022-08-01T06:38:37;4.07;;;1.58;;
29430;SDS011;16404;49.902;10.074;2022-08-01T06:41:22;3.10;;;1.65;;
29430;SDS011;16404;49.902;10.074;2022-08-01T06:46:51;4.40;;;1.60;;
29430;SDS011;16404;49.902;10.074;2022-08-01T06:49:36;1.90;;;1.70;;
29430;SDS011;16404;49.902;10.074;2022-08-01T06:52:21;3.20;;;1.55;;
29430;SDS011;16404;49.902;10.074;2022-08-01T06:55:05;3.15;;;1.40;;
29430;SDS011;16404;49.902;10.074;2022-08-01T07:00:36;2.25;;;1.48;;
29430;SDS011;16404;49.902;10.074;2022-08-01T07:03:20;2.90;;;1.83;;
29430;SDS011;16404;49.902;10.074;2022-08-01T07:06:05;2.42;;;1.85;;
29430;SDS011;16404;49.902;10.074;2022-08-01T07:08:49;3.35;;;1.63;;
29430;SDS011;16404;49.902;10.074;2022-08-01T07:11:34;4.38;;;1.45;;
29430;SDS011;16404;49.902;10.074;2022-08-01T07:14:22;4.00;;;1.90;;
29430;SDS011;16404;49.902;10.074;2022-08-01T07:17:07;4.50;;;1.90;;
29430;SDS011;16404;49.902;10.074;2022-08-01T07:19:51;5.28;;;2.08;;
29430;SDS011;16404;49.902;10.074;2022-08-01T07:22:38;4.43;;;2.25;;
29430;SDS011;16404;49.902;10.074;2022-08-01T07:25:22;4.35;;;1.73;;
29430;SDS011;16404;49.902;10.074;2022-08-01T07:28:07;3.80;;;1.70;;
29430;SDS011;16404;49.902;10.074;2022-08-01T07:30:51;3.10;;;1.88;;
29430;SDS011;16404;49.902;10.074;2022-08-01T07:33:36;8.25;;;1.88;;
29430;SDS011;16404;49.902;10.074;2022-08-01T07:36:20;3.30;;;1.77;;
29430;SDS011;16404;49.902;10.074;2022-08-01T07:39:05;3.20;;;1.70;;
29430;SDS011;16404;49.902;10.074;2022-08-01T07:41:50;2.75;;;1.90;;
29430;SDS011;16404;49.902;10.074;2022-08-01T07:44:35;2.97;;;2.08;;
29430;SDS011;16404;49.902;10.074;2022-08-01T07:47:25;4.47;;;2.20;;
29430;SDS011;16404;49.902;10.074;2022-08-01T07:50:10;1.88;;;1.75;;
29430;SDS011;16404;49.902;10.074;2022-08-01T07:52:56;2.85;;;2.25;;
29430;SDS011;16404;49.902;10.074;2022-08-01T07:55:40;3.83;;;2.03;;
29430;SDS011;16404;49.902;10.074;2022-08-01T07:58:25;2.38;;;2.00;;
29430;SDS011;16404;49.902;10.074;2022-08-01T08:01:10;2.50;;;2.15;;
29430;SDS011;16404;49.902;10.074;2022-08-01T08:03:54;4.40;;;2.00;;
29430;SDS011;16404;49.902;10.074;2022-08-01T08:06:39;4.55;;;2.58;;
29430;SDS011;16404;49.902;10.074;2022-08-01T08:09:25;4.13;;;2.20;;
29430;SDS011;16404;49.902;10.074;2022-08-01T08:12:09;2.30;;;1.80;;
29430;SDS011;16404;49.902;10.074;2022-08-01T08:14:54;2.55;;;2.05;;
29430;SDS011;16404;49.902;10.074;2022-08-01T08:17:39;3.05;;;2.17;;
29430;SDS011;16404;49.902;10.074;2022-08-01T08:20:23;2.28;;;1.85;;
29430;SDS011;16404;49.902;10.074;2022-08-01T08:23:13;4.00;;;2.03;;
29430;SDS011;16404;49.902;10.074;2022-08-01T08:26:16;2.20;;;1.98;;
29430;SDS011;16404;49.902;10.074;2022-08-01T08:29:00;3.08;;;2.10;;
29430;SDS011;16404;49.902;10.074;2022-08-01T08:31:45;2.72;;;2.22;;
29430;SDS011;16404;49.902;10.074;2022-08-01T08:34:29;2.22;;;2.03;;
29430;SDS011;16404;49.902;10.074;2022-08-01T08:37:14;2.28;;;2.10;;
29430;SDS011;16404;49.902;10.074;2022-08-01T08:39:58;2.17;;;1.98;;
29430;SDS011;16404;49.902;10.074;2022-08-01T08:42:43;2.70;;;2.50;;
29430;SDS011;16404;49.902;10.074;2022-08-01T08:45:29;2.20;;;2.00;;
29430;SDS011;16404;49.902;10.074;2022-08-01T08:48:15;2.22;;;2.00;;
29430;SDS011;16404;49.902;10.074;2022-08-01T08:51:00;2.53;;;1.92;;
29430;SDS011;16404;49.902;10.074;2022-08-01T08:56:30;3.70;;;2.47;;
29430;SDS011;16404;49.902;10.074;2022-08-01T08:59:17;2.70;;;1.90;;
29430;SDS011;16404;49.902;10.074;2022-08-01T09:02:02;2.78;;;1.90;;
29430;SDS011;16404;49.902;10.074;2022-08-01T09:04:49;4.05;;;1.80;;
29430;SDS011;16404;49.902;10.074;2022-08-01T09:07:34;4.60;;;2.08;;
29430;SDS011;16404;49.902;10.074;2022-08-01T09:10:19;1.85;;;1.75;;
29430;SDS011;16404;49.902;10.074;2022-08-01T09:13:11;3.10;;;1.83;;
29430;SDS011;16404;49.902;10.074;2022-08-01T09:15:56;2.08;;;1.90;;
29430;SDS011;16404;49.902;10.074;2022-08-01T09:18:44;1.63;;;1.52;;
29430;SDS011;16404;49.902;10.074;2022-08-01T09:21:28;1.65;;;1.55;;
29430;SDS011;16404;49.902;10.074;2022-08-01T09:24:13;1.70;;;1.60;;
29430;SDS011;16404;49.902;10.074;2022-08-01T09:26:59;2.17;;;1.98;;
29430;SDS011;16404;49.902;10.074;2022-08-01T09:29:45;1.70;;;1.60;;
29430;SDS011;16404;49.902;10.074;2022-08-01T09:32:29;2.88;;;1.60;;
29430;SDS011;16404;49.902;10.074;2022-08-01T09:35:34;2.03;;;1.80;;
29430;SDS011;16404;49.902;10.074;2022-08-01T09:38:21;1.30;;;1.20;;
29430;SDS011;16404;49.902;10.074;2022-08-01T09:41:12;2.55;;;1.40;;
29430;SDS011;16404;49.902;10.074;2022-08-01T09:43:56;2.83;;;1.30;;
29430;SDS011;16404;49.902;10.074;2022-08-01T09:46:51;2.40;;;1.40;;
29430;SDS011;16404;49.902;10.074;2022-08-01T09:49:38;1.17;;;1.17;;
29430;SDS011;16404;49.902;10.074;2022-08-01T09:52:24;1.73;;;1.63;;
29430;SDS011;16404;49.902;10.074;2022-08-01T09:55:09;1.40;;;1.30;;
29430;SDS011;16404;49.902;10.074;2022-08-01T09:57:54;2.78;;;1.50;;
29430;SDS011;16404;49.902;10.074;2022-08-01T10:00:40;4.25;;;1.80;;
29430;SDS011;16404;49.902;10.074;2022-08-01T10:03:25;1.50;;;1.40;;
29430;SDS011;16404;49.902;10.074;2022-08-01T10:06:20;1.95;;;1.60;;
29430;SDS011;16404;49.902;10.074;2022-08-01T10:09:05;1.70;;;1.55;;
29430;SDS011;16404;49.902;10.074;2022-08-01T10:11:50;1.80;;;1.70;;
29430;SDS011;16404;49.902;10.074;2022-08-01T10:14:34;1.45;;;1.35;;
29430;SDS011;16404;49.902;10.074;2022-08-01T10:17:23;1.67;;;1.58;;
29430;SDS011;16404;49.902;10.074;2022-08-01T10:20:09;1.70;;;1.60;;
29430;SDS011;16404;49.902;10.074;2022-08-01T10:22:54;2.42;;;1.42;;
29430;SDS011;16404;49.902;10.074;2022-08-01T10:25:41;1.40;;;1.27;;
29430;SDS011;16404;49.902;10.074;2022-08-01T10:28:28;1.50;;;1.40;;
29430;SDS011;16404;49.902;10.074;2022-08-01T10:31:14;1.40;;;1.27;;
29430;SDS011;16404;49.902;10.074;2022-08-01T10:34:01;1.42;;;1.30;;
29430;SDS011;16404;49.902;10.074;2022-08-01T10:36:46;2.30;;;1.23;;
29430;SDS011;16404;49.902;10.074;2022-08-01T10:39:32;1.60;;;1.40;;
29430;SDS011;16404;49.902;10.074;2022-08-01T10:42:17;3.58;;;1.27;;
29430;SDS011;16404;49.902;10.074;2022-08-01T10:45:02;4.07;;;1.20;;
29430;SDS011;16404;49.902;10.074;2022-08-01T10:48:02;2.38;;;1.27;;
29430;SDS011;16404;49.902;10.074;2022-08-01T10:50:53;1.33;;;1.23;;
29430;SDS011;16404;49.902;10.074;2022-08-01T10:53:49;1.67;;;1.50;;
29430;SDS011;16404;49.902;10.074;2022-08-01T10:56:42;2.10;;;1.07;;
29430;SDS011;16404;49.902;10.074;2022-08-01T10:59:31;5.95;;;1.42;;
29430;SDS011;16404;49.902;10.074;2022-08-01T11:02:27;1.52;;;1.20;;
29430;SDS011;16404;49.902;10.074;2022-08-01T11:05:20;1.60;;;1.23;;
29430;SDS011;16404;49.902;10.074;2022-08-01T11:08:10;1.25;;;1.15;;
29430;SDS011;16404;49.902;10.074;2022-08-01T11:11:04;1.15;;;1.02;;
29430;SDS011;16404;49.902;10.074;2022-08-01T11:16:56;1.85;;;1.40;;
29430;SDS011;16404;49.902;10.074;2022-08-01T11:23:21;3.05;;;1.60;;
29430;SDS011;16404;49.902;10.074;2022-08-01T11:26:06;2.17;;;1.40;;
29430;SDS011;16404;49.902;10.074;2022-08-01T11:29:11;1.63;;;1.27;;
29430;SDS011;16404;49.902;10.074;2022-08-01T11:32:22;3.63;;;1.52;;
29430;SDS011;16404;49.902;10.074;2022-08-01T11:35:07;1.50;;;1.40;;
29430;SDS011;16404;49.902;10.074;2022-08-01T11:37:53;3.42;;;1.50;;
29430;SDS011;16404;49.902;10.074;2022-08-01T11:40:40;3.95;;;1.35;;
29430;SDS011;16404;49.902;10.074;2022-08-01T11:46:10;2.15;;;1.10;;
29430;SDS011;16404;49.902;10.074;2022-08-01T11:52:28;3.78;;;1.45;;
29430;SDS011;16404;49.902;10.074;2022-08-01T11:55:16;1.55;;;1.20;;
29430;SDS011;16404;49.902;10.074;2022-08-01T12:00:49;1.52;;;1.42;;
29430;SDS011;16404;49.902;10.074;2022-08-01T12:03:35;2.03;;;1.10;;
29430;SDS011;16404;49.902;10.074;2022-08-01T12:06:28;2.10;;;1.20;;
29430;SDS011;16404;49.902;10.074;2022-08-01T12:09:17;1.40;;;1.30;;
29430;SDS011;16404;49.902;10.074;2022-08-01T12:12:03;2.95;;;1.48;;
29430;SDS011;16404;49.902;10.074;2022-08-01T12:14:53;1.30;;;1.20;;
29430;SDS011;16404;49.902;10.074;2022-08-01T12:17:42;2.63;;;1.20;;
29430;SDS011;16404;49.902;10.074;2022-08-01T12:20:30;1.90;;;1.40;;
29430;SDS011;16404;49.902;10.074;2022-08-01T12:23:19;1.23;;;1.13;;
29430;SDS011;16404;49.902;10.074;2022-08-01T12:26:04;1.80;;;1.30;;
29430;SDS011;16404;49.902;10.074;2022-08-01T12:28:49;1.25;;;1.10;;
29430;SDS011;16404;49.902;10.074;2022-08-01T12:31:34;1.55;;;1.13;;
29430;SDS011;16404;49.902;10.074;2022-08-01T12:34:26;1.30;;;1.20;;
29430;SDS011;16404;49.902;10.074;2022-08-01T12:37:12;4.05;;;1.48;;
29430;SDS011;16404;49.902;10.074;2022-08-01T12:39:56;4.03;;;1.30;;
29430;SDS011;16404;49.902;10.074;2022-08-01T12:42:42;1.33;;;1.20;;
29430;SDS011;16404;49.902;10.074;2022-08-01T12:45:29;6.22;;;1.60;;
29430;SDS011;16404;49.902;10.074;2022-08-01T12:48:17;3.15;;;1.63;;
29430;SDS011;16404;49.902;10.074;2022-08-01T12:51:02;1.73;;;1.40;;
29430;SDS011;16404;49.902;10.074;2022-08-01T12:53:47;4.72;;;1.58;;
29430;SDS011;16404;49.902;10.074;2022-08-01T12:56:32;2.25;;;1.60;;
29430;SDS011;16404;49.902;10.074;2022-08-01T13:02:11;1.58;;;1.33;;
29430;SDS011;16404;49.902;10.074;2022-08-01T13:04:56;3.42;;;1.50;;
29430;SDS011;16404;49.902;10.074;2022-08-01T13:07:49;4.00;;;1.75;;
29430;SDS011;16404;49.902;10.074;2022-08-01T13:10:34;2.03;;;1.38;;
29430;SDS011;16404;49.902;10.074;2022-08-01T13:13:19;1.52;;;1.40;;
29430;SDS011;16404;49.902;10.074;2022-08-01T13:16:04;2.45;;;1.40;;
29430;SDS011;16404;49.902;10.074;2022-08-01T13:18:52;2.30;;;1.60;;
29430;SDS011;16404;49.902;10.074;2022-08-01T13:21:37;1.55;;;1.45;;
29430;SDS011;16404;49.902;10.074;2022-08-01T13:24:31;1.88;;;1.50;;
29430;SDS011;16404;49.902;10.074;2022-08-01T13:27:22;1.85;;;1.20;;
29430;SDS011;16404;49.902;10.074;2022-08-01T13:30:15;2.25;;;1.20;;
29430;SDS011;16404;49.902;10.074;2022-08-01T13:33:01;2.97;;;1.30;;
29430;SDS011;16404;49.902;10.074;2022-08-01T13:35:45;3.65;;;1.25;;
29430;SDS011;16404;49.902;10.074;2022-08-01T13:38:31;1.30;;;1.20;;
29430;SDS011;16404;49.902;10.074;2022-08-01T13:41:34;1.20;;;1.10;;
29430;SDS011;16404;49.902;10.074;2022-08-01T13:44:19;1.50;;;1.40;;
29430;SDS011;16404;49.902;10.074;2022-08-01T13:49:48;4.70;;;1.47;;
29430;SDS011;16404;49.902;10.074;2022-08-01T13:55:17;1.30;;;1.20;;
29430;SDS011;16404;49.902;10.074;2022-08-01T13:58:02;1.42;;;1.20;;
29430;SDS011;16404;49.902;10.074;2022-08-01T14:00:46;1.35;;;1.25;;
29430;SDS011;16404;49.902;10.074;2022-08-01T14:03:31;0.98;;;0.98;;
29430;SDS011;16404;49.902;10.074;2022-08-01T14:06:15;2.38;;;1.25;;
29430;SDS011;16404;49.902;10.074;2022-08-01T14:09:01;1.65;;;1.30;;
29430;SDS011;16404;49.902;10.074;2022-08-01T14:11:47;1.73;;;1.30;;
29430;SDS011;16404;49.902;10.074;2022-08-01T14:14:31;4.30;;;1.40;;
29430;SDS011;16404;49.902;10.074;2022-08-01T14:17:16;1.33;;;1.08;;
29430;SDS011;16404;49.902;10.074;2022-08-01T14:20:00;1.55;;;1.40;;
29430;SDS011;16404;49.902;10.074;2022-08-01T14:22:46;1.40;;;1.15;;
29430;SDS011;16404;49.902;10.074;2022-08-01T14:25:31;1.40;;;1.20;;
29430;SDS011;16404;49.902;10.074;2022-08-01T14:28:15;1.27;;;1.17;;
29430;SDS011;16404;49.902;10.074;2022-08-01T14:31:00;2.58;;;1.27;;
29430;SDS011;16404;49.902;10.074;2022-08-01T14:33:44;2.72;;;1.40;;
29430;SDS011;16404;49.902;10.074;2022-08-01T14:36:29;1.67;;;1.58;;
29430;SDS011;16404;49.902;10.074;2022-08-01T14:39:14;2.03;;;1.63;;
29430;SDS011;16404;49.902;10.074;2022-08-01T14:41:58;1.88;;;1.52;;
29430;SDS011;16404;49.902;10.074;2022-08-01T14:47:27;2.05;;;1.55;;
29430;SDS011;16404;49.902;10.074;2022-08-01T14:52:58;1.75;;;1.63;;
29430;SDS011;16404;49.902;10.074;2022-08-01T14:55:42;5.18;;;1.88;;
29430;SDS011;16404;49.902;10.074;2022-08-01T14:58:27;1.73;;;1.63;;
29430;SDS011;16404;49.902;10.074;2022-08-01T15:01:12;3.95;;;1.88;;
29430;SDS011;16404;49.902;10.074;2022-08-01T15:03:56;3.65;;;2.03;;
29430;SDS011;16404;49.902;10.074;2022-08-01T15:06:41;2.25;;;1.75;;
29430;SDS011;16404;49.902;10.074;2022-08-01T15:09:26;2.03;;;1.92;;
29430;SDS011;16404;49.902;10.074;2022-08-01T15:12:10;1.77;;;1.67;;
29430;SDS011;16404;49.902;10.074;2022-08-01T15:14:56;1.73;;;1.63;;
29430;SDS011;16404;49.902;10.074;2022-08-01T15:17:41;3.25;;;1.90;;
29430;SDS011;16404;49.902;10.074;2022-08-01T15:20:26;3.55;;;1.80;;
29430;SDS011;16404;49.902;10.074;2022-08-01T15:25:55;1.70;;;1.58;;
29430;SDS011;16404;49.902;10.074;2022-08-01T15:31:24;4.88;;;1.80;;
29430;SDS011;16404;49.902;10.074;2022-08-01T15:36:53;3.20;;;1.55;;
29430;SDS011;16404;49.902;10.074;2022-08-01T15:39:37;2.28;;;1.52;;
29430;SDS011;16404;49.902;10.074;2022-08-01T15:42:22;3.28;;;1.90;;
29430;SDS011;16404;49.902;10.074;2022-08-01T15:45:07;2.72;;;1.95;;
29430;SDS011;16404;49.902;10.074;2022-08-01T15:47:52;3.17;;;2.08;;
29430;SDS011;16404;49.902;10.074;2022-08-01T15:50:37;8.38;;;2.47;;
29430;SDS011;16404;49.902;10.074;2022-08-01T15:56:06;10.10;;;2.60;;
29430;SDS011;16404;49.902;10.074;2022-08-01T15:58:50;5.20;;;2.72;;
29430;SDS011;16404;49.902;10.074;2022-08-01T16:01:35;3.13;;;1.80;;
29430;SDS011;16404;49.902;10.074;2022-08-01T16:04:21;6.63;;;4.75;;
29430;SDS011;16404;49.902;10.074;2022-08-01T16:07:06;5.03;;;3.38;;
29430;SDS011;16404;49.902;10.074;2022-08-01T16:09:51;3.20;;;2.10;;
29430;SDS011;16404;49.902;10.074;2022-08-01T16:12:35;16.15;;;9.48;;
29430;SDS011;16404;49.902;10.074;2022-08-01T16:18:05;3.00;;;2.70;;
29430;SDS011;16404;49.902;10.074;2022-08-01T16:20:50;5.57;;;2.70;;
29430;SDS011;16404;49.902;10.074;2022-08-01T16:23:35;8.82;;;2.00;;
29430;SDS011;16404;49.902;10.074;2022-08-01T16:26:19;30.67;;;2.38;;
29430;SDS011;16404;49.902;10.074;2022-08-01T16:29:04;14.02;;;3.20;;
29430;SDS011;16404;49.902;10.074;2022-08-01T16:31:48;26.42;;;2.72;;
29430;SDS011;16404;49.902;10.074;2022-08-01T16:37:18;3.50;;;1.95;;
29430;SDS011;16404;49.902;10.074;2022-08-01T16:40:03;6.32;;;2.10;;
29430;SDS011;16404;49.902;10.074;2022-08-01T16:42:47;3.40;;;2.08;;
29430;SDS011;16404;49.902;10.074;2022-08-01T16:45:32;3.00;;;2.38;;
29430;SDS011;16404;49.902;10.074;2022-08-01T16:48:16;2.30;;;2.15;;
29430;SDS011;16404;49.902;10.074;2022-08-01T16:51:02;3.05;;;2.08;;
29430;SDS011;16404;49.902;10.074;2022-08-01T16:56:31;4.78;;;2.30;;
29430;SDS011;16404;49.902;10.074;2022-08-01T16:59:15;4.57;;;2.45;;
29430;SDS011;16404;49.902;10.074;2022-08-01T17:02:00;21.48;;;2.75;;
29430;SDS011;16404;49.902;10.074;2022-08-01T17:04:45;11.32;;;2.78;;
29430;SDS011;16404;49.902;10.074;2022-08-01T17:07:29;7.40;;;2.42;;
29430;SDS011;16404;49.902;10.074;2022-08-01T17:12:58;22.65;;;3.38;;
29430;SDS011;16404;49.902;10.074;2022-08-01T17:15:43;10.82;;;3.20;;
29430;SDS011;16404;49.902;10.074;2022-08-01T17:18:30;11.80;;;2.95;;
29430;SDS011;16404;49.902;10.074;2022-08-01T17:21:14;13.90;;;2.97;;
29430;SDS011;16404;49.902;10.074;2022-08-01T17:23:59;6.55;;;2.60;;
29430;SDS011;16404;49.902;10.074;2022-08-01T17:26:44;5.88;;;3.03;;
29430;SDS011;16404;49.902;10.074;2022-08-01T17:29:28;18.27;;;3.35;;
29430;SDS011;16404;49.902;10.074;2022-08-01T17:32:13;6.07;;;2.78;;
29430;SDS011;16404;49.902;10.074;2022-08-01T17:34:58;2.90;;;2.65;;
29430;SDS011;16404;49.902;10.074;2022-08-01T17:37:43;3.95;;;2.58;;
29430;SDS011;16404;49.902;10.074;2022-08-01T17:40:27;5.50;;;2.90;;
29430;SDS011;16404;49.902;10.074;2022-08-01T17:43:12;10.57;;;2.72;;
29430;SDS011;16404;49.902;10.074;2022-08-01T17:48:41;25.67;;;3.70;;
29430;SDS011;16404;49.902;10.074;2022-08-01T17:51:27;24.95;;;3.42;;
29430;SDS011;16404;49.902;10.074;2022-08-01T17:54:12;13.55;;;3.08;;
29430;SDS011;16404;49.902;10.074;2022-08-01T17:56:57;9.00;;;3.40;;
29430;SDS011;16404;49.902;10.074;2022-08-01T17:59:41;9.50;;;3.10;;
29430;SDS011;16404;49.902;10.074;2022-08-01T18:02:26;6.43;;;3.03;;
29430;SDS011;16404;49.902;10.074;2022-08-01T18:05:11;4.22;;;3.28;;
29430;SDS011;16404;49.902;10.074;2022-08-01T18:07:55;7.65;;;2.90;;
29430;SDS011;16404;49.902;10.074;2022-08-01T18:10:40;4.55;;;3.20;;
29430;SDS011;16404;49.902;10.074;2022-08-01T18:13:25;3.70;;;3.40;;
29430;SDS011;16404;49.902;10.074;2022-08-01T18:16:10;5.13;;;3.15;;
29430;SDS011;16404;49.902;10.074;2022-08-01T18:18:55;3.90;;;3.25;;
29430;SDS011;16404;49.902;10.074;2022-08-01T18:21:40;6.05;;;3.22;;
29430;SDS011;16404;49.902;10.074;2022-08-01T18:24:25;4.28;;;3.88;;
29430;SDS011;16404;49.902;10.074;2022-08-01T18:27:09;6.10;;;3.67;;
29430;SDS011;16404;49.902;10.074;2022-08-01T18:29:54;6.97;;;4.28;;
29430;SDS011;16404;49.902;10.074;2022-08-01T18:32:39;8.65;;;3.35;;
29430;SDS011;16404;49.902;10.074;2022-08-01T18:35:25;9.02;;;3.20;;
29430;SDS011;16404;49.902;10.074;2022-08-01T18:38:10;4.47;;;3.33;;
29430;SDS011;16404;49.902;10.074;2022-08-01T18:40:55;6.40;;;3.67;;
29430;SDS011;16404;49.902;10.074;2022-08-01T18:43:40;6.75;;;3.40;;
29430;SDS011;16404;49.902;10.074;2022-08-01T18:46:24;4.28;;;3.88;;
29430;SDS011;16404;49.902;10.074;2022-08-01T18:49:10;4.43;;;3.55;;
29430;SDS011;16404;49.902;10.074;2022-08-01T18:51:55;4.75;;;3.20;;
29430;SDS011;16404;49.902;10.074;2022-08-01T18:54:42;3.60;;;3.30;;
29430;SDS011;16404;49.902;10.074;2022-08-01T18:57:26;11.25;;;3.67;;
29430;SDS011;16404;49.902;10.074;2022-08-01T19:00:11;11.13;;;3.33;;
29430;SDS011;16404;49.902;10.074;2022-08-01T19:02:58;7.53;;;3.95;;
29430;SDS011;16404;49.902;10.074;2022-08-01T19:05:42;6.68;;;3.58;;
29430;SDS011;16404;49.902;10.074;2022-08-01T19:08:27;4.07;;;3.67;;
29430;SDS011;16404;49.902;10.074;2022-08-01T19:11:11;11.05;;;3.70;;
29430;SDS011;16404;49.902;10.074;2022-08-01T19:13:56;9.52;;;3.90;;
29430;SDS011;16404;49.902;10.074;2022-08-01T19:16:41;5.00;;;3.60;;
29430;SDS011;16404;49.902;10.074;2022-08-01T19:19:26;5.80;;;4.60;;
29430;SDS011;16404;49.902;10.074;2022-08-01T19:22:10;5.60;;;3.50;;
29430;SDS011;16404;49.902;10.074;2022-08-01T19:24:55;5.35;;;3.60;;
29430;SDS011;16404;49.902;10.074;2022-08-01T19:27:42;6.43;;;3.83;;
